Accueil
METAR-TAF:

METAR-TAF

Aéroports :

Nancy, France

Aéroport de Nancy-Essey

latitude: 48-41N, longitude: 006-13E, altitude: 225 m

Observation

Le bulletin a été fait il y a 29 minutes, à 10:30 UTC
Vent 7 kt de ouest, variant entre ouest/sud-ouest et nord-ouest
Température 7°C
Humidité 81%
Pression 1012 hPa
Visibilité 10 km ou plus
Nuages épars à une hauteur de 3400 ft
Nuages fragmentés à une hauteur de 4200 ft
Ciel couvert à une hauteur de 5800 ft
pluie faible

METAR: LFSN 251030Z AUTO 27007KT 240V320 9999 -RA SCT034 BKN042 OVC058 07/04 Q1012

Heure: 11:59 (10:59 UTC)


TAF: absent

Observations et prévisions météorologiques de plus de 4000 aéroports (messages METAR et TAF).

Les stations disponibles sont représentées par des disques jaunes et rouges sur la carte.

Passer la souris dessus pour voir le nom de la station.

Cliquer dessus pour voir les observations et prévisions météorologiques.

Pour changer de carte: cliquez sur les boutons verts avec une croix noire pour zoomer, sur le bouton vert avec un tiret pour effectuer un zoom arrière, ou sur les flèches vertes pour les cartes adjacentes.


METAR-TAF: